Time;durP1;ratioP1;P1;durP2;ratioP2;P2;SDS_P1;SDS_P2;PMS_P1;PMS_P2;Temp;Humidity;BMP_temperature;BMP_pressure;BME280_temperature;BME280_humidity;BME280_pressure;Samples;Min_cycle;Max_cycle;Signal;HPM_P1;HPM_P2
2023/03/28 00:01:45;;;;;;;5.90;1.90;;;0.90;99.90;;;;;;4989239;28;20031;-77
2023/03/28 00:04:11;;;;;;;3.35;2.25;;;0.90;99.90;;;;;;4989261;28;20030;-77
2023/03/28 00:06:37;;;;;;;3.83;1.42;;;0.60;99.90;;;;;;4989071;28;20031;-76
2023/03/28 00:09:04;;;;;;;3.80;1.20;;;0.50;99.90;;;;;;4988897;28;20042;-77
2023/03/28 00:11:30;;;;;;;1.98;1.60;;;;;;;;;;4988968;28;20033;-77
2023/03/28 00:14:02;;;;;;;2.45;1.55;;;0.60;99.90;;;;;;4989070;28;20033;-77
2023/03/28 00:16:30;;;;;;;1.15;1.13;;;0.60;99.90;;;;;;4988494;28;20109;-76
2023/03/28 00:18:59;;;;;;;3.50;1.63;;;0.40;99.90;;;;;;4989041;28;20064;-76
2023/03/28 00:21:30;;;;;;;1.13;1.02;;;0.60;99.90;;;;;;4988706;28;20081;-77
2023/03/28 00:24:00;;;;;;;2.05;1.55;;;0.40;99.90;;;;;;4989200;28;20101;-77
2023/03/28 00:26:28;;;;;;;2.15;1.75;;;0.40;99.90;;;;;;5020156;28;20054;-77
2023/03/28 00:28:54;;;;;;;;;;;0.40;99.90;;;;;;4989538;28;20121;-76
2023/03/28 00:31:21;;;;;;;1.80;1.07;;;;;;;;;;4989014;28;19909;-77
2023/03/28 00:33:47;;;;;;;1.67;1.15;;;;;;;;;;4988325;28;20265;-77
2023/03/28 00:36:17;;;;;;;0.65;0.65;;;0.30;99.90;;;;;;4988664;28;20023;-77
2023/03/28 00:38:43;;;;;;;4.70;2.03;;;;;;;;;;4988971;28;20026;-77
2023/03/28 00:41:09;;;;;;;3.28;1.55;;;0.20;99.90;;;;;;4988751;28;20034;-77
2023/03/28 00:43:43;;;;;;;5.28;1.25;;;0.70;99.90;;;;;;4987424;28;20045;-77
2023/03/28 00:46:37;;;;;;;2.10;1.48;;;0.50;99.90;;;;;;4988495;28;20137;-77
2023/03/28 00:49:08;;;;;;;1.40;1.15;;;0.50;99.90;;;;;;4987562;28;20109;-77
2023/03/28 00:51:37;;;;;;;1.42;1.17;;;0.60;99.90;;;;;;4988448;28;20026;-76
2023/03/28 00:54:04;;;;;;;3.17;1.98;;;0.60;99.90;;;;;;4988777;28;20030;-77
2023/03/28 00:56:33;;;;;;;;;;;1.00;99.90;;;;;;4989548;28;20029;-77
2023/03/28 00:59:04;;;;;;;4.22;2.00;;;0.30;99.90;;;;;;4987333;28;19912;-78
2023/03/28 01:01:30;;;;;;;2.58;1.23;;;;;;;;;;4988706;28;20034;-77
2023/03/28 01:04:05;;;;;;;1.25;1.10;;;0.20;99.90;;;;;;4984827;28;20113;-76
2023/03/28 01:06:34;;;;;;;1.67;0.80;;;0.00;99.90;;;;;;4988143;28;20038;-77
2023/03/28 01:09:03;;;;;;;1.08;1.00;;;-0.30;99.90;;;;;;4988461;28;20026;-77
2023/03/28 01:11:31;;;;;;;4.55;1.50;;;0.00;99.90;;;;;;4991409;28;20025;-76
2023/03/28 01:14:01;;;;;;;1.15;1.15;;;0.00;99.90;;;;;;4991872;28;20092;-78
2023/03/28 01:16:29;;;;;;;2.20;1.33;;;0.00;99.90;;;;;;4992650;28;20037;-77
2023/03/28 01:19:00;;;;;;;2.38;1.45;;;0.50;99.90;;;;;;4991723;28;20514;-77
2023/03/28 01:21:55;;;;;;;5.28;1.80;;;0.60;99.90;;;;;;4991780;28;20034;-77
2023/03/28 01:24:51;;;;;;;1.17;0.80;;;0.00;99.90;;;;;;4992292;28;20030;-77
2023/03/28 01:27:25;;;;;;;2.40;1.03;;;0.10;99.90;;;;;;4989903;28;20076;-78
2023/03/28 01:29:59;;;;;;;0.75;0.75;;;0.30;99.90;;;;;;4992013;28;20029;-76
2023/03/28 01:32:41;;;;;;;1.95;1.33;;;;;;;;;;4991343;28;20042;-77
2023/03/28 01:35:19;;;;;;;1.60;1.20;;;0.00;99.90;;;;;;4991559;28;20030;-78
2023/03/28 01:38:02;;;;;;;1.13;1.05;;;0.10;99.90;;;;;;4979947;28;20028;-78
2023/03/28 01:40:54;;;;;;;2.80;1.00;;;-0.20;99.90;;;;;;4990196;28;20450;-77
2023/03/28 01:43:40;;;;;;;0.70;0.65;;;0.00;99.90;;;;;;4991308;28;20041;-77
2023/03/28 01:46:16;;;;;;;1.45;0.82;;;-0.20;99.90;;;;;;4989939;28;20050;-77
2023/03/28 01:49:06;;;;;;;0.70;0.70;;;-0.20;99.90;;;;;;4991188;28;20026;-77
2023/03/28 01:51:53;;;;;;;0.88;0.85;;;-0.20;99.90;;;;;;4991305;28;20037;-77
2023/03/28 01:54:25;;;;;;;3.50;1.20;;;-0.20;99.90;;;;;;4991442;28;20499;-77
2023/03/28 01:57:18;;;;;;;1.23;1.02;;;-0.40;99.90;;;;;;4991115;28;20085;-76
2023/03/28 01:59:49;;;;;;;3.40;1.77;;;-0.40;99.90;;;;;;4991317;28;20113;-77
2023/03/28 02:02:39;;;;;;;0.65;0.65;;;-0.30;99.90;;;;;;4990449;28;20908;-78
2023/03/28 02:05:09;;;;;;;10.43;1.40;;;-0.40;99.90;;;;;;4991084;28;20466;-77
2023/03/28 02:07:37;;;;;;;2.45;1.00;;;-0.50;99.90;;;;;;4991503;28;20042;-77
2023/03/28 02:10:05;;;;;;;2.10;1.33;;;-0.30;99.90;;;;;;4991115;28;20022;-77
2023/03/28 02:12:38;;;;;;;1.23;1.10;;;-0.60;99.90;;;;;;4991108;28;20027;-77
2023/03/28 02:15:07;;;;;;;2.22;1.10;;;-0.50;99.90;;;;;;4991141;28;20499;-76
2023/03/28 02:17:40;;;;;;;1.23;1.13;;;-0.30;99.90;;;;;;4990425;28;20066;-77
2023/03/28 02:20:11;;;;;;;0.80;0.80;;;-0.40;99.90;;;;;;4990970;28;20072;-77
2023/03/28 02:22:45;;;;;;;3.78;1.52;;;-0.30;99.90;;;;;;4990503;28;20037;-77
2023/03/28 02:25:11;;;;;;;4.32;1.20;;;-0.40;99.90;;;;;;4991226;28;20029;-77
2023/03/28 02:27:38;;;;;;;5.85;1.08;;;-0.40;99.90;;;;;;4990740;28;20105;-78
2023/03/28 02:30:06;;;;;;;;;;;-0.40;99.90;;;;;;4991296;28;20105;-78
2023/03/28 02:32:32;;;;;;;1.77;0.98;;;-0.50;99.90;;;;;;4990261;28;20407;-77
2023/03/28 02:35:01;;;;;;;1.73;1.63;;;-0.40;99.90;;;;;;4990614;28;20014;-77
2023/03/28 02:37:44;;;;;;;5.03;1.65;;;-0.40;99.90;;;;;;4990479;28;20030;-77
2023/03/28 02:40:11;;;;;;;1.65;1.55;;;;;;;;;;4989944;28;20030;-77
2023/03/28 02:42:55;;;;;;;4.37;1.40;;;-0.50;99.90;;;;;;4977815;28;20053;-77
2023/03/28 02:45:51;;;;;;;1.70;1.23;;;-0.60;99.90;;;;;;5005298;28;20194;-77
2023/03/28 02:48:28;;;;;;;0.65;0.65;;;-0.20;99.90;;;;;;4990470;28;20513;-77
2023/03/28 02:51:13;;;;;;;1.25;1.15;;;-0.70;99.90;;;;;;4990608;28;20636;-77
2023/03/28 02:53:57;;;;;;;1.50;1.30;;;-0.50;99.90;;;;;;4990033;28;20106;-77
2023/03/28 02:56:35;;;;;;;3.80;1.42;;;-0.50;99.90;;;;;;5005258;28;20026;-78
2023/03/28 02:59:11;;;;;;;2.45;1.58;;;-0.50;99.90;;;;;;4979089;28;20620;-78
2023/03/28 03:01:39;;;;;;;2.28;1.30;;;;;;;;;;4989904;28;20031;-78
2023/03/28 03:04:06;;;;;;;2.95;1.20;;;-0.50;99.90;;;;;;4990284;28;20030;-77
2023/03/28 03:06:33;;;;;;;2.97;1.07;;;;;;;;;;4990829;28;20138;-77
2023/03/28 03:09:00;;;;;;;1.85;1.67;;;-0.50;99.90;;;;;;4990435;28;20029;-77
2023/03/28 03:11:27;;;;;;;2.22;1.45;;;;;;;;;;4990327;28;20092;-77
2023/03/28 03:13:53;;;;;;;0.88;0.88;;;-0.60;99.90;;;;;;4990479;28;20125;-78
2023/03/28 03:16:19;;;;;;;1.27;1.17;;;;;;;;;;4989227;28;20019;-77
2023/03/28 03:18:45;;;;;;;2.08;1.98;;;;;;;;;;4988504;28;20053;-77
2023/03/28 03:21:11;;;;;;;0.88;0.88;;;;;;;;;;4989646;28;20688;-77
2023/03/28 03:23:37;;;;;;;0.88;0.75;;;-0.80;99.90;;;;;;4989899;28;20026;-77
2023/03/28 03:26:03;;;;;;;1.00;1.00;;;;;;;;;;4990253;28;20034;-77
2023/03/28 03:28:29;;;;;;;1.25;1.15;;;-0.80;99.90;;;;;;4989557;28;20057;-78
2023/03/28 03:30:55;;;;;;;0.85;0.85;;;;;;;;;;4989623;28;20070;-77
2023/03/28 03:33:21;;;;;;;1.88;1.42;;;;;;;;;;4989093;28;20030;-78
2023/03/28 03:35:47;;;;;;;2.90;1.10;;;;;;;;;;4988768;28;20018;-77
2023/03/28 03:38:13;;;;;;;0.90;0.90;;;-0.80;99.90;;;;;;4989191;28;20061;-78
2023/03/28 03:40:39;;;;;;;0.88;0.88;;;;;;;;;;4988184;28;20018;-78
2023/03/28 03:43:05;;;;;;;2.47;0.93;;;;;;;;;;4989574;28;20034;-77
2023/03/28 03:45:31;;;;;;;1.23;1.05;;;-0.90;99.90;;;;;;4989257;28;20057;-77
2023/03/28 03:47:56;;;;;;;8.52;1.58;;;-0.70;99.90;;;;;;4989883;28;20022;-77
2023/03/28 03:50:22;;;;;;;2.05;1.00;;;;;;;;;;4989503;28;20022;-77
2023/03/28 03:52:48;;;;;;;3.83;1.70;;;;;;;;;;4989642;28;20026;-78
2023/03/28 03:55:14;;;;;;;3.47;1.13;;;-0.70;99.90;;;;;;4987858;28;20102;-77
2023/03/28 03:57:40;;;;;;;1.00;1.00;;;;;;;;;;4988594;28;20038;-78
2023/03/28 04:00:12;;;;;;;2.60;1.15;;;-0.90;99.90;;;;;;4989459;28;20030;-78
2023/03/28 04:02:38;;;;;;;4.65;1.42;;;-0.70;99.90;;;;;;4989431;28;20038;-77
2023/03/28 04:05:07;;;;;;;7.45;1.90;;;-0.60;99.90;;;;;;4989063;28;20027;-77
2023/03/28 04:07:32;;;;;;;2.05;1.70;;;-0.90;99.90;;;;;;4989376;28;20034;-77
2023/03/28 04:09:58;;;;;;;1.75;1.08;;;;;;;;;;4989618;28;20034;-77
2023/03/28 04:12:24;;;;;;;1.92;1.33;;;;;;;;;;4984179;28;20038;-78
2023/03/28 04:14:50;;;;;;;3.65;1.52;;;;;;;;;;4988038;28;20076;-76
2023/03/28 04:17:20;;;;;;;9.57;2.70;;;-1.00;99.90;;;;;;4989501;28;20446;-77
2023/03/28 04:19:48;;;;;;;5.43;2.95;;;;;;;;;;4989118;28;20030;-78
2023/03/28 04:22:17;;;;;;;3.10;2.85;;;-1.00;99.90;;;;;;4989384;28;20031;-78
2023/03/28 04:24:43;;;;;;;5.95;1.67;;;-1.00;99.90;;;;;;4989150;28;20104;-77
2023/03/28 04:27:10;;;;;;;1.50;0.82;;;-0.50;99.90;;;;;;4988571;28;20395;-77
2023/03/28 04:29:36;;;;;;;0.75;0.75;;;;;;;;;;4987559;28;20085;-77
2023/03/28 04:32:04;;;;;;;0.77;0.77;;;-0.90;99.90;;;;;;4989047;28;20034;-77
2023/03/28 04:34:32;;;;;;;1.85;1.25;;;-0.80;99.90;;;;;;4988663;28;20030;-78
2023/03/28 04:37:02;;;;;;;2.45;1.25;;;-0.90;99.90;;;;;;4988827;28;20105;-78
2023/03/28 04:39:34;;;;;;;2.35;1.52;;;-0.90;99.90;;;;;;5020498;28;20431;-77
2023/03/28 04:42:03;;;;;;;1.35;0.98;;;;;;;;;;4989220;28;20097;-77
2023/03/28 04:44:30;;;;;;;0.93;0.88;;;-1.10;99.90;;;;;;4986979;28;20042;-77
2023/03/28 04:46:57;;;;;;;1.00;0.90;;;-1.10;99.90;;;;;;4992278;28;20050;-78
2023/03/28 04:49:23;;;;;;;1.65;0.95;;;;;;;;;;4993034;28;20026;-77
2023/03/28 04:51:52;;;;;;;4.45;1.42;;;-1.00;99.90;;;;;;4991916;28;20041;-78
2023/03/28 04:54:18;;;;;;;2.28;1.52;;;-1.20;99.90;;;;;;4992819;28;20158;-77
2023/03/28 04:56:46;;;;;;;4.18;1.98;;;-1.20;99.90;;;;;;4992241;28;20511;-78
2023/03/28 04:59:13;;;;;;;1.23;1.02;;;-1.10;99.90;;;;;;4992621;28;20031;-77
2023/03/28 05:01:39;;;;;;;1.23;1.13;;;;;;;;;;4992477;28;20065;-78
2023/03/28 05:04:05;;;;;;;1.42;1.30;;;-1.20;99.90;;;;;;4992493;28;20026;-77
2023/03/28 05:06:31;;;;;;;0.88;0.88;;;-0.90;99.90;;;;;;4992557;28;20480;-77
2023/03/28 05:08:57;;;;;;;1.05;1.00;;;;;;;;;;4991961;28;20101;-77
2023/03/28 05:11:23;;;;;;;1.48;1.25;;;;;;;;;;4990321;28;20026;-77
2023/03/28 05:13:49;;;;;;;1.50;1.40;;;-1.40;99.90;;;;;;4992415;28;20068;-78
2023/03/28 05:16:14;;;;;;;2.80;1.38;;;-1.40;99.90;;;;;;4992389;28;20065;-77
2023/03/28 05:18:40;;;;;;;5.78;1.77;;;-1.40;99.90;;;;;;4990217;28;20046;-78
2023/03/28 05:21:06;;;;;;;1.33;1.23;;;;;;;;;;4992131;28;20034;-74
2023/03/28 05:23:32;;;;;;;1.23;1.08;;;-1.00;99.90;;;;;;4988598;28;20050;-75
2023/03/28 05:25:58;;;;;;;0.90;0.90;;;;;;;;;;4990540;28;20066;-75
2023/03/28 05:28:24;;;;;;;0.98;0.98;;;-1.30;99.90;;;;;;4989668;28;20058;-75
2023/03/28 05:30:50;;;;;;;11.48;2.35;;;;;;;;;;4989083;28;20432;-75
2023/03/28 05:33:16;;;;;;;2.22;1.35;;;-1.10;99.90;;;;;;4989297;28;20018;-75
2023/03/28 05:35:42;;;;;;;2.63;2.42;;;-1.10;99.90;;;;;;4987891;28;20029;-75
2023/03/28 05:38:08;;;;;;;1.75;1.65;;;;;;;;;;4988758;28;20145;-74
2023/03/28 05:40:33;;;;;;;4.05;1.88;;;-1.00;99.90;;;;;;4989817;28;20030;-77
2023/03/28 05:42:59;;;;;;;1.48;1.38;;;-0.90;99.90;;;;;;4989579;28;20029;-75
2023/03/28 05:45:25;;;;;;;1.75;1.65;;;-0.90;99.90;;;;;;4988731;28;20056;-74
2023/03/28 05:47:53;;;;;;;2.42;1.48;;;-0.80;99.90;;;;;;4989746;28;20034;-74
2023/03/28 05:50:19;;;;;;;3.28;2.13;;;-0.90;99.90;;;;;;4988599;28;20117;-75
2023/03/28 05:52:45;;;;;;;18.77;8.43;;;;;;;;;;4988769;28;20116;-73
2023/03/28 05:55:10;;;;;;;9.35;3.30;;;-0.70;99.90;;;;;;4990173;28;20042;-73
2023/03/28 05:57:37;;;;;;;1.30;1.27;;;;;;;;;;4987157;28;20065;-74
2023/03/28 06:00:14;;;;;;;2.88;1.98;;;-0.50;99.90;;;;;;4990311;28;20043;-70
2023/03/28 06:02:41;;;;;;;3.60;1.42;;;-0.40;99.90;;;;;;4983187;28;20080;-70
2023/03/28 06:05:12;;;;;;;1.52;1.30;;;-0.10;99.90;;;;;;4989703;28;20455;-71
2023/03/28 06:07:38;;;;;;;7.45;1.35;;;-0.30;99.90;;;;;;4990147;28;20026;-71
2023/03/28 06:10:05;;;;;;;2.05;1.30;;;0.20;99.90;;;;;;4990171;28;20041;-71
2023/03/28 06:12:31;;;;;;;4.80;1.95;;;0.70;99.90;;;;;;4990944;28;20034;-71
2023/03/28 06:14:57;;;;;;;2.90;2.25;;;0.90;99.90;;;;;;4990403;28;20089;-70
2023/03/28 06:17:23;;;;;;;2.90;1.92;;;1.60;99.90;;;;;;4990741;28;20038;-70
2023/03/28 06:19:49;;;;;;;4.35;2.80;;;;;;;;;;4990293;28;20782;-71
2023/03/28 06:22:15;;;;;;;4.63;2.13;;;7.90;99.90;;;;;;4987103;28;20030;-76
2023/03/28 06:24:40;;;;;;;2.95;1.85;;;8.50;83.20;;;;;;4990236;28;20029;-74
2023/03/28 06:27:06;;;;;;;5.25;2.78;;;11.10;94.80;;;;;;4990170;28;20105;-72
2023/03/28 06:29:32;;;;;;;1.83;1.73;;;11.20;73.90;;;;;;4988338;28;20022;-73
2023/03/28 06:31:57;;;;;;;2.78;2.55;;;11.90;65.40;;;;;;4990052;28;20033;-74
2023/03/28 06:34:23;;;;;;;2.40;2.30;;;12.50;67.00;;;;;;4989363;28;20037;-75
2023/03/28 06:36:49;;;;;;;3.97;2.63;;;14.70;90.00;;;;;;4989510;28;20076;-75
2023/03/28 06:39:14;;;;;;;4.10;3.70;;;15.40;60.20;;;;;;4989351;28;20109;-75
2023/03/28 06:41:40;;;;;;;10.82;7.05;;;19.40;53.00;;;;;;4989488;28;20042;-75
2023/03/28 06:44:06;;;;;;;12.52;6.28;;;20.10;52.80;;;;;;4989115;28;20504;-75
2023/03/28 06:46:32;;;;;;;13.68;5.97;;;20.30;48.50;;;;;;4989922;28;20054;-75
2023/03/28 06:48:58;;;;;;;7.68;4.93;;;19.20;45.50;;;;;;4989473;28;20056;-75
2023/03/28 06:51:24;;;;;;;5.93;3.85;;;18.50;49.80;;;;;;4989172;28;20599;-75
2023/03/28 06:53:49;;;;;;;7.57;3.28;;;17.60;50.80;;;;;;4989596;28;20156;-78
2023/03/28 06:56:15;;;;;;;5.50;3.42;;;15.50;52.90;;;;;;4989356;28;20027;-75
2023/03/28 06:58:41;;;;;;;5.07;3.38;;;16.40;73.30;;;;;;4988836;28;20041;-75
2023/03/28 07:01:07;;;;;;;12.38;6.30;;;;;;;;;;4988784;28;20034;-75
2023/03/28 07:03:33;;;;;;;9.82;5.82;;;19.60;66.30;;;;;;4988896;28;20026;-75
2023/03/28 07:06:04;;;;;;;9.52;3.85;;;20.70;43.50;;;;;;4989120;28;20030;-77
2023/03/28 07:08:29;;;;;;;7.32;4.03;;;22.40;61.00;;;;;;4988347;28;20026;-73
2023/03/28 07:10:55;;;;;;;4.55;3.65;;;22.30;41.40;;;;;;4989211;28;20037;-73
2023/03/28 07:13:21;;;;;;;7.20;4.72;;;24.40;38.90;;;;;;4988826;28;20037;-72
2023/03/28 07:15:47;;;;;;;4.43;3.50;;;26.20;37.20;;;;;;4989668;28;20081;-73
2023/03/28 07:18:12;;;;;;;8.70;3.92;;;28.40;34.80;;;;;;4987126;28;20104;-73
2023/03/28 07:20:41;;;;;;;5.35;3.33;;;28.90;33.80;;;;;;4988736;28;20034;-73
2023/03/28 07:23:07;;;;;;;3.20;2.72;;;30.00;31.70;;;;;;4988413;28;20041;-71
2023/03/28 07:25:33;;;;;;;7.43;2.80;;;32.30;31.10;;;;;;4989739;28;20411;-74
2023/03/28 07:27:59;;;;;;;3.67;2.87;;;32.00;26.90;;;;;;4988045;28;20030;-74
2023/03/28 07:30:25;;;;;;;4.18;2.97;;;32.20;29.20;;;;;;4989370;28;20050;-74
2023/03/28 07:32:52;;;;;;;7.05;3.17;;;32.80;28.70;;;;;;4989022;28;20376;-74
2023/03/28 07:35:18;;;;;;;;;;;32.70;26.20;;;;;;4988835;28;20037;-74
2023/03/28 07:37:44;;;;;;;7.37;3.33;;;32.60;26.20;;;;;;4987942;28;19909;-73
2023/03/28 07:40:11;;;;;;;6.38;2.40;;;31.70;46.00;;;;;;4988787;28;20030;-73
2023/03/28 07:42:37;;;;;;;7.30;2.70;;;;;;;;;;4987439;28;20038;-73
2023/03/28 07:45:03;;;;;;;5.68;2.53;;;30.20;36.60;;;;;;4988481;28;20033;-73
2023/03/28 07:47:29;;;;;;;4.72;3.25;;;30.50;33.90;;;;;;4988687;28;20026;-74
2023/03/28 07:49:56;;;;;;;6.07;4.03;;;29.00;42.80;;;;;;4988421;28;20028;-73
2023/03/28 07:52:22;;;;;;;6.03;2.90;;;29.60;44.90;;;;;;5002448;28;20508;-74
2023/03/28 07:54:48;;;;;;;5.72;2.97;;;31.80;43.10;;;;;;4988383;28;20045;-73
2023/03/28 07:57:14;;;;;;;4.65;2.50;;;32.90;39.70;;;;;;4988243;28;20434;-74
2023/03/28 07:59:40;;;;;;;5.40;3.15;;;33.00;34.30;;;;;;4987937;28;20027;-76
2023/03/28 08:02:06;;;;;;;8.90;2.90;;;;;;;;;;5003183;28;20077;-76
2023/03/28 08:04:32;;;;;;;5.63;2.90;;;34.50;39.20;;;;;;4987858;28;20037;-76
2023/03/28 08:06:59;;;;;;;7.33;3.13;;;36.00;39.20;;;;;;4988163;28;20503;-75
2023/03/28 08:09:24;;;;;;;;;;;36.50;23.60;;;;;;4988798;28;20045;-76
2023/03/28 08:11:50;;;;;;;4.47;2.70;;;38.20;34.20;;;;;;4988166;28;19917;-75
2023/03/28 08:14:17;;;;;;;4.77;3.00;;;40.50;34.90;;;;;;4984984;28;20113;-74
2023/03/28 08:16:44;;;;;;;3.38;3.08;;;38.70;35.00;;;;;;4988638;28;20022;-73
2023/03/28 08:19:10;;;;;;;8.00;3.38;;;37.40;36.00;;;;;;4988680;28;20035;-73
2023/03/28 08:21:35;;;;;;;4.78;1.77;;;37.40;36.40;;;;;;4991785;28;20369;-73
2023/03/28 08:24:02;;;;;;;4.50;2.27;;;38.00;35.30;;;;;;4990560;28;20031;-72
2023/03/28 08:26:29;;;;;;;3.45;1.92;;;38.30;33.50;;;;;;4991959;28;20268;-75
2023/03/28 08:28:57;;;;;;;2.85;1.50;;;38.30;26.50;;;;;;4991494;28;20519;-74
2023/03/28 08:31:24;;;;;;;2.45;1.65;;;39.50;26.20;;;;;;4992175;28;20031;-75
2023/03/28 08:33:51;;;;;;;4.78;1.88;;;39.10;33.00;;;;;;4990761;28;20041;-76
2023/03/28 08:36:17;;;;;;;3.20;2.15;;;39.30;30.00;;;;;;4991877;28;20158;-76
2023/03/28 08:38:45;;;;;;;5.63;2.58;;;41.70;32.50;;;;;;4991467;28;20034;-76
2023/03/28 08:41:45;;;;;;;5.00;2.55;;;42.20;23.50;;;;;;4991830;28;20034;-75
2023/03/28 08:44:17;;;;;;;3.25;2.03;;;46.40;29.30;;;;;;4991580;28;20029;-75
2023/03/28 08:46:44;;;;;;;2.13;1.58;;;47.20;21.80;;;;;;4991776;28;20531;-75
2023/03/28 08:49:16;;;;;;;1.80;1.70;;;48.60;28.40;;;;;;4990874;28;20042;-75
2023/03/28 08:51:46;;;;;;;2.92;1.65;;;45.90;27.80;;;;;;4991471;28;20092;-75
2023/03/28 08:54:45;;;;;;;5.43;1.38;;;42.40;29.80;;;;;;4991148;28;20030;-74
2023/03/28 08:57:22;;;;;;;3.97;1.27;;;38.90;31.30;;;;;;4990778;28;20045;-74
2023/03/28 09:00:23;;;;;;;1.73;1.17;;;36.50;32.90;;;;;;4991371;28;20058;-73
2023/03/28 09:02:49;;;;;;;1.60;1.30;;;37.10;32.60;;;;;;4991008;28;20166;-72
2023/03/28 09:05:19;;;;;;;2.97;1.90;;;40.80;31.20;;;;;;4991013;28;20041;-72
2023/03/28 09:08:03;;;;;;;2.92;1.65;;;44.50;29.20;;;;;;4991460;28;20097;-75
2023/03/28 09:10:44;;;;;;;3.03;1.52;;;46.60;27.80;;;;;;4995633;28;20033;-76
2023/03/28 09:13:19;;;;;;;2.33;1.48;;;47.70;27.80;;;;;;4989861;28;20034;-76
2023/03/28 09:15:58;;;;;;;2.30;1.23;;;48.10;20.30;;;;;;4991382;28;20030;-75
2023/03/28 09:18:24;;;;;;;1.77;1.35;;;;;;;;;;4978474;28;20034;-75
2023/03/28 09:21:17;;;;;;;2.75;1.38;;;48.70;19.50;;;;;;4991204;28;20465;-75
2023/03/28 09:24:15;;;;;;;2.92;1.10;;;48.40;26.90;;;;;;4994414;28;20065;-74
2023/03/28 09:26:51;;;;;;;1.50;1.23;;;48.00;20.70;;;;;;4994705;28;20030;-70
2023/03/28 09:29:19;;;;;;;2.53;1.10;;;48.80;19.80;;;;;;4991448;28;20108;-70
2023/03/28 09:31:47;;;;;;;2.97;0.95;;;49.20;27.50;;;;;;4989896;28;20068;-71
2023/03/28 09:34:26;;;;;;;1.10;0.88;;;49.30;19.60;;;;;;4990384;28;20022;-71
2023/03/28 09:36:55;;;;;;;1.08;0.98;;;49.40;19.60;;;;;;4991270;28;20073;-71
2023/03/28 09:39:38;;;;;;;5.78;1.33;;;49.30;27.30;;;;;;4990569;28;20604;-74
2023/03/28 09:42:04;;;;;;;2.35;1.10;;;;;;;;;;4990594;28;20035;-74
2023/03/28 09:44:39;;;;;;;4.22;1.15;;;47.50;27.40;;;;;;4991299;28;20052;-73
2023/03/28 09:47:10;;;;;;;2.33;0.82;;;48.00;19.30;;;;;;4990133;28;20062;-74
2023/03/28 09:49:36;;;;;;;3.25;0.77;;;;;;;;;;4990503;28;20491;-74
2023/03/28 09:52:14;;;;;;;2.00;1.25;;;48.10;22.50;;;;;;4990191;28;20432;-74
2023/03/28 09:54:41;;;;;;;1.48;0.98;;;48.40;19.20;;;;;;4991042;28;20580;-73
2023/03/28 09:57:07;;;;;;;3.63;1.30;;;;;;;;;;4989682;28;20034;-73
2023/03/28 09:59:34;;;;;;;4.28;1.20;;;47.90;27.00;;;;;;4990888;28;20037;-72
2023/03/28 10:02:01;;;;;;;2.05;0.70;;;47.40;26.80;;;;;;4989788;28;20053;-72
2023/03/28 10:04:27;;;;;;;2.25;1.33;;;47.10;27.20;;;;;;4989551;28;20030;-74
2023/03/28 10:06:54;;;;;;;2.33;0.68;;;46.80;27.20;;;;;;4990180;28;20041;-72
2023/03/28 10:09:26;;;;;;;3.22;1.10;;;46.60;27.60;;;;;;4989593;28;20480;-72
2023/03/28 10:12:01;;;;;;;1.40;1.20;;;46.60;27.20;;;;;;4989813;28;20022;-72
2023/03/28 10:14:41;;;;;;;2.65;0.60;;;45.60;19.30;;;;;;4989753;28;20097;-74
2023/03/28 10:17:07;;;;;;;1.98;0.70;;;;;;;;;;4981336;28;20034;-74
2023/03/28 10:19:37;;;;;;;2.13;0.63;;;45.90;22.50;;;;;;4989926;28;20416;-73
2023/03/28 10:22:06;;;;;;;2.80;0.98;;;45.90;19.10;;;;;;4987684;28;20061;-73
2023/03/28 10:24:33;;;;;;;1.45;0.57;;;45.70;26.70;;;;;;4990983;28;20023;-72
2023/03/28 10:27:32;;;;;;;3.50;1.23;;;46.10;27.60;;;;;;4996695;28;20027;-73
2023/03/28 10:30:12;;;;;;;1.30;0.68;;;44.70;27.90;;;;;;4989080;28;20058;-73
2023/03/28 10:32:38;;;;;;;2.33;0.90;;;44.00;27.90;;;;;;4989649;28;20046;-73
2023/03/28 10:35:22;;;;;;;2.17;0.95;;;44.80;19.20;;;;;;4989588;28;20030;-73
2023/03/28 10:37:53;;;;;;;1.80;0.70;;;44.30;27.80;;;;;;4979452;28;20110;-72
2023/03/28 10:40:19;;;;;;;1.08;0.63;;;44.30;27.40;;;;;;4989639;28;20381;-73
2023/03/28 10:42:45;;;;;;;;;;;44.00;19.10;;;;;;4989526;28;20030;-73
2023/03/28 10:45:32;;;;;;;1.70;0.68;;;42.80;27.50;;;;;;4989046;28;19910;-72
2023/03/28 10:48:00;;;;;;;2.30;0.70;;;41.80;28.80;;;;;;4981471;28;20027;-72
2023/03/28 10:50:49;;;;;;;2.42;0.73;;;42.20;19.40;;;;;;4989383;28;20025;-73
2023/03/28 10:53:48;;;;;;;2.25;0.82;;;43.00;28.10;;;;;;4988745;28;20101;-73
2023/03/28 10:56:41;;;;;;;2.60;0.70;;;42.40;27.90;;;;;;4989093;28;20026;-72
2023/03/28 10:59:25;;;;;;;1.20;0.70;;;42.80;19.00;;;;;;4986319;28;20619;-73
2023/03/28 11:02:03;;;;;;;1.35;0.57;;;42.50;23.00;;;;;;4987498;28;20046;-73
2023/03/28 11:04:29;;;;;;;0.98;0.52;;;;;;;;;;4988140;28;20102;-72
2023/03/28 11:07:11;;;;;;;0.85;0.80;;;43.50;19.10;;;;;;4989489;28;20043;-73
2023/03/28 11:10:03;;;;;;;1.70;0.80;;;44.00;27.50;;;;;;4988365;28;20057;-72
2023/03/28 11:13:05;;;;;;;1.40;0.68;;;43.40;22.10;;;;;;4986500;28;20045;-72
2023/03/28 11:15:56;;;;;;;5.20;1.00;;;43.80;27.70;;;;;;4980109;28;20109;-72
2023/03/28 11:18:25;;;;;;;2.03;0.63;;;43.20;19.30;;;;;;4986084;28;20045;-73
2023/03/28 11:21:18;;;;;;;0.98;0.52;;;40.80;26.60;;;;;;4988407;28;20040;-72
2023/03/28 11:23:45;;;;;;;1.58;0.70;;;37.40;19.70;;;;;;4987813;28;20019;-72
2023/03/28 11:26:12;;;;;;;4.22;1.45;;;;;;;;;;4988254;28;20034;-72
2023/03/28 11:28:51;;;;;;;1.27;0.80;;;32.60;32.50;;;;;;4988691;28;20041;-72
2023/03/28 11:31:28;;;;;;;1.17;0.70;;;30.60;24.60;;;;;;4988742;28;20037;-75
2023/03/28 11:33:57;;;;;;;;;;;30.10;22.10;;;;;;4988657;28;20944;-75
2023/03/28 11:36:54;;;;;;;1.27;0.60;;;28.10;26.40;;;;;;4988977;28;20394;-74
2023/03/28 11:39:41;;;;;;;6.47;1.38;;;27.20;23.20;;;;;;4990627;28;20122;-74
2023/03/28 11:42:37;;;;;;;1.15;0.68;;;27.40;27.90;;;;;;4987404;28;20077;-74
2023/03/28 11:45:03;;;;;;;2.45;1.10;;;;;;;;;;4987074;28;20583;-72
2023/03/28 11:47:56;;;;;;;5.38;1.98;;;28.10;25.40;;;;;;4988270;28;20042;-73
2023/03/28 11:50:27;;;;;;;1.48;0.98;;;27.90;30.30;;;;;;4988601;28;20022;-72
2023/03/28 11:52:59;;;;;;;3.42;1.10;;;28.20;27.70;;;;;;4988455;28;20046;-72
2023/03/28 11:55:32;;;;;;;2.35;1.20;;;28.30;26.40;;;;;;4986256;28;20018;-73
2023/03/28 11:58:04;;;;;;;1.42;0.80;;;26.70;38.40;;;;;;4987890;28;20038;-76
2023/03/28 12:00:51;;;;;;;7.53;1.58;;;26.70;32.60;;;;;;4987805;28;20033;-75
2023/03/28 12:03:30;;;;;;;4.03;1.38;;;28.50;26.40;;;;;;4987453;28;20030;-77
2023/03/28 12:06:09;;;;;;;1.25;1.05;;;29.60;37.50;;;;;;4980954;28;20041;-73
2023/03/28 12:08:39;;;;;;;1.40;1.30;;;31.20;22.90;;;;;;4988104;28;20116;-72
2023/03/28 12:11:10;;;;;;;2.45;1.45;;;32.00;24.90;;;;;;4987911;28;20026;-71
2023/03/28 12:13:44;;;;;;;2.10;1.55;;;31.40;36.80;;;;;;4988227;28;20114;-72
2023/03/28 12:16:38;;;;;;;2.97;1.60;;;30.30;22.70;;;;;;4987740;28;20108;-72
2023/03/28 12:19:09;;;;;;;1.90;1.45;;;29.40;27.30;;;;;;4988990;28;20040;-72
2023/03/28 12:21:42;;;;;;;3.72;1.42;;;28.60;23.60;;;;;;4984397;28;20034;-72
2023/03/28 12:24:32;;;;;;;9.65;2.58;;;27.70;23.80;;;;;;4988114;28;20172;-72
2023/03/28 12:27:05;;;;;;;3.80;1.95;;;26.50;24.40;;;;;;4983248;28;20066;-72
2023/03/28 12:29:36;;;;;;;4.97;2.00;;;25.20;40.40;;;;;;4988238;28;20048;-72
2023/03/28 12:32:30;;;;;;;5.70;2.22;;;25.00;25.10;;;;;;4987749;28;20029;-73
2023/03/28 12:35:28;;;;;;;1.60;1.48;;;24.80;35.20;;;;;;4978784;28;20060;-71
2023/03/28 12:37:54;;;;;;;3.65;2.70;;;;;;;;;;4996143;28;20117;-71
2023/03/28 12:40:47;;;;;;;4.00;2.30;;;23.60;26.30;;;;;;4987344;28;20026;-72
2023/03/28 12:43:17;;;;;;;2.25;1.90;;;23.40;34.60;;;;;;4987897;28;20037;-72
2023/03/28 12:45:47;;;;;;;3.22;2.05;;;23.00;26.90;;;;;;4987795;28;20070;-73
2023/03/28 12:48:23;;;;;;;4.63;2.35;;;22.50;36.90;;;;;;4987847;28;20039;-71
2023/03/28 12:50:54;;;;;;;2.70;2.05;;;22.10;37.90;;;;;;4978131;28;20042;-73
2023/03/28 12:53:23;;;;;;;5.60;2.28;;;;;;;;;;4987194;28;20083;-72
2023/03/28 12:55:50;;;;;;;2.28;1.92;;;21.50;28.10;;;;;;4987318;28;20027;-72
2023/03/28 12:58:20;;;;;;;;;;;21.50;28.50;;;;;;4988445;28;20124;-72
2023/03/28 13:01:18;;;;;;;4.45;2.22;;;21.00;28.60;;;;;;4988303;28;19916;-72
2023/03/28 13:04:08;;;;;;;3.13;2.42;;;20.60;46.70;;;;;;4987903;28;20534;-72
2023/03/28 13:06:41;;;;;;;2.90;2.53;;;19.70;29.20;;;;;;4989236;28;20507;-72
2023/03/28 13:09:19;;;;;;;2.80;2.53;;;19.00;30.00;;;;;;4991025;28;20084;-72
2023/03/28 13:11:53;;;;;;;4.15;2.40;;;19.00;30.50;;;;;;4989228;28;20054;-72
2023/03/28 13:14:25;;;;;;;2.78;1.88;;;18.90;47.30;;;;;;4990980;28;20022;-72
2023/03/28 13:16:59;;;;;;;2.65;2.42;;;19.20;29.90;;;;;;4991109;28;20026;-72
2023/03/28 13:19:50;;;;;;;2.63;2.25;;;19.10;31.20;;;;;;4991150;28;20657;-71
2023/03/28 13:22:28;;;;;;;2.42;2.22;;;20.30;29.40;;;;;;4990705;28;20027;-71
2023/03/28 13:25:15;;;;;;;4.80;2.97;;;20.30;48.20;;;;;;4979270;28;20027;-72
2023/03/28 13:27:41;;;;;;;;;;;20.00;30.10;;;;;;4990751;28;20120;-75
2023/03/28 13:30:15;;;;;;;3.92;2.55;;;20.20;29.90;;;;;;4990299;28;19952;-75
2023/03/28 13:33:02;;;;;;;4.45;2.53;;;20.20;29.70;;;;;;4989736;28;20061;-75